sensor_id;sensor_type;location;lat;lon;timestamp;pressure;altitude;pressure_sealevel;temperature;humidity
73341;BME280;61578;52.002;5.468;2023-05-19T00:00:05;102681.56;;;10.65;70.86
73341;BME280;61578;52.002;5.468;2023-05-19T00:00:37;102681.56;;;10.65;71.38
73341;BME280;61578;52.002;5.468;2023-05-19T00:01:08;102684.16;;;10.66;70.83
73341;BME280;61578;52.002;5.468;2023-05-19T00:01:40;102685.03;;;10.67;70.68
73341;BME280;61578;52.002;5.468;2023-05-19T00:02:13;102682.31;;;10.68;70.97
73341;BME280;61578;52.002;5.468;2023-05-19T00:02:45;102685.78;;;10.70;70.90
73341;BME280;61578;52.002;5.468;2023-05-19T00:03:15;102661.50;;;10.56;70.90
73341;BME280;61578;52.002;5.468;2023-05-19T00:03:53;102684.03;;;10.69;70.96
73341;BME280;61578;52.002;5.468;2023-05-19T00:04:26;102682.31;;;10.68;70.75
73341;BME280;61578;52.002;5.468;2023-05-19T00:04:59;102677.13;;;10.65;70.09
73341;BME280;61578;52.002;5.468;2023-05-19T00:05:31;102683.13;;;10.70;70.77
73341;BME280;61578;52.002;5.468;2023-05-19T00:06:03;102683.97;;;10.71;70.85
73341;BME280;61578;52.002;5.468;2023-05-19T00:06:35;102685.72;;;10.72;70.91
73341;BME280;61578;52.002;5.468;2023-05-19T00:07:09;102683.06;;;10.72;70.69
73341;BME280;61578;52.002;5.468;2023-05-19T00:07:43;102686.59;;;10.73;70.60
73341;BME280;61578;52.002;5.468;2023-05-19T00:08:16;102682.16;;;10.73;70.50
73341;BME280;61578;52.002;5.468;2023-05-19T00:08:49;102677.00;;;10.68;70.77
73341;BME280;61578;52.002;5.468;2023-05-19T00:09:26;102681.31;;;10.71;70.71
73341;BME280;61578;52.002;5.468;2023-05-19T00:09:58;102681.31;;;10.71;70.56
73341;BME280;61578;52.002;5.468;2023-05-19T00:10:29;102690.22;;;10.70;70.37
73341;BME280;61578;52.002;5.468;2023-05-19T00:11:02;102684.13;;;10.68;70.13
73341;BME280;61578;52.002;5.468;2023-05-19T00:11:38;102677.94;;;10.67;70.63
73341;BME280;61578;52.002;5.468;2023-05-19T00:12:10;102679.72;;;10.67;70.58
73341;BME280;61578;52.002;5.468;2023-05-19T00:12:41;102677.13;;;10.65;70.73
73341;BME280;61578;52.002;5.468;2023-05-19T00:13:13;102678.81;;;10.68;70.28
73341;BME280;61578;52.002;5.468;2023-05-19T00:13:45;102679.78;;;10.65;70.59
73341;BME280;61578;52.002;5.468;2023-05-19T00:14:24;102684.16;;;10.66;70.69
73341;BME280;61578;52.002;5.468;2023-05-19T00:14:55;102684.97;;;10.68;70.71
73341;BME280;61578;52.002;5.468;2023-05-19T00:15:26;102688.56;;;10.67;70.75
73341;BME280;61578;52.002;5.468;2023-05-19T00:15:57;102678.84;;;10.66;70.94
73341;BME280;61578;52.002;5.468;2023-05-19T00:16:29;102678.84;;;10.66;70.91
73341;BME280;61578;52.002;5.468;2023-05-19T00:17:01;102687.63;;;10.68;70.77
73341;BME280;61578;52.002;5.468;2023-05-19T00:17:32;102685.09;;;10.65;70.65
73341;BME280;61578;52.002;5.468;2023-05-19T00:18:03;102685.03;;;10.67;70.38
73341;BME280;61578;52.002;5.468;2023-05-19T00:18:35;102682.44;;;10.65;70.73
73341;BME280;61578;52.002;5.468;2023-05-19T00:19:05;102681.56;;;10.65;70.58
73341;BME280;61578;52.002;5.468;2023-05-19T00:19:39;102681.50;;;10.66;71.14
73341;BME280;61578;52.002;5.468;2023-05-19T00:20:10;102680.69;;;10.64;70.50
73341;BME280;61578;52.002;5.468;2023-05-19T00:20:42;102683.34;;;10.64;70.78
73341;BME280;61578;52.002;5.468;2023-05-19T00:21:13;102672.00;;;10.59;70.71
73341;BME280;61578;52.002;5.468;2023-05-19T00:21:44;102662.47;;;10.54;70.41
73341;BME280;61578;52.002;5.468;2023-05-19T00:22:15;102675.47;;;10.61;70.32
73341;BME280;61578;52.002;5.468;2023-05-19T00:22:45;102663.34;;;10.54;70.83
73341;BME280;61578;52.002;5.468;2023-05-19T00:23:16;102676.44;;;10.59;70.47
73341;BME280;61578;52.002;5.468;2023-05-19T00:23:47;102680.03;;;10.58;70.82
73341;BME280;61578;52.002;5.468;2023-05-19T00:24:18;102669.63;;;10.52;70.57
73341;BME280;61578;52.002;5.468;2023-05-19T00:24:48;102678.41;;;10.54;70.90
73341;BME280;61578;52.002;5.468;2023-05-19T00:25:22;102662.78;;;10.45;70.71
73341;BME280;61578;52.002;5.468;2023-05-19T00:25:53;102669.66;;;10.50;71.22
73341;BME280;61578;52.002;5.468;2023-05-19T00:26:24;102673.13;;;10.52;71.40
73341;BME280;61578;52.002;5.468;2023-05-19T00:26:56;102659.84;;;10.52;71.16
73341;BME280;61578;52.002;5.468;2023-05-19T00:27:26;102668.75;;;10.51;71.05
73341;BME280;61578;52.002;5.468;2023-05-19T00:27:57;102670.53;;;10.51;71.34
73341;BME280;61578;52.002;5.468;2023-05-19T00:28:28;102665.25;;;10.49;70.88
73341;BME280;61578;52.002;5.468;2023-05-19T00:28:59;102665.25;;;10.49;71.33
73341;BME280;61578;52.002;5.468;2023-05-19T00:29:33;102664.34;;;10.50;71.10
73341;BME280;61578;52.002;5.468;2023-05-19T00:30:04;102657.44;;;10.46;71.20
73341;BME280;61578;52.002;5.468;2023-05-19T00:30:35;102647.78;;;10.44;71.38
73341;BME280;61578;52.002;5.468;2023-05-19T00:31:06;102664.34;;;10.50;71.70
73341;BME280;61578;52.002;5.468;2023-05-19T00:31:37;102662.56;;;10.51;71.56
73341;BME280;61578;52.002;5.468;2023-05-19T00:32:10;102662.63;;;10.49;71.12
73341;BME280;61578;52.002;5.468;2023-05-19T00:32:41;102659.22;;;10.46;71.29
73341;BME280;61578;52.002;5.468;2023-05-19T00:33:14;102656.44;;;10.49;71.40
73341;BME280;61578;52.002;5.468;2023-05-19T00:33:48;102652.06;;;10.48;70.99
73341;BME280;61578;52.002;5.468;2023-05-19T00:34:21;102656.50;;;10.47;71.35
73341;BME280;61578;52.002;5.468;2023-05-19T00:34:52;102656.56;;;10.46;71.22
73341;BME280;61578;52.002;5.468;2023-05-19T00:35:23;102665.25;;;10.49;71.21
73341;BME280;61578;52.002;5.468;2023-05-19T00:35:54;102659.09;;;10.49;70.85
73341;BME280;61578;52.002;5.468;2023-05-19T00:36:25;102640.91;;;10.38;71.09
73341;BME280;61578;52.002;5.468;2023-05-19T00:36:55;102655.66;;;10.47;71.12
73341;BME280;61578;52.002;5.468;2023-05-19T00:37:26;102660.19;;;10.43;71.37
73341;BME280;61578;52.002;5.468;2023-05-19T00:37:57;102661.91;;;10.44;70.94
73341;BME280;61578;52.002;5.468;2023-05-19T00:38:30;102666.38;;;10.44;71.45
73341;BME280;61578;52.002;5.468;2023-05-19T00:39:02;102660.19;;;10.43;71.55
73341;BME280;61578;52.002;5.468;2023-05-19T00:39:33;102654.88;;;10.43;71.72
73341;BME280;61578;52.002;5.468;2023-05-19T00:40:04;102648.97;;;10.35;71.29
73341;BME280;61578;52.002;5.468;2023-05-19T00:40:36;102660.19;;;10.43;71.49
73341;BME280;61578;52.002;5.468;2023-05-19T00:41:06;102662.84;;;10.43;71.79
73341;BME280;61578;52.002;5.468;2023-05-19T00:41:39;102642.84;;;10.33;71.86
73341;BME280;61578;52.002;5.468;2023-05-19T00:42:13;102656.66;;;10.43;71.70
73341;BME280;61578;52.002;5.468;2023-05-19T00:42:44;102661.91;;;10.44;71.71
73341;BME280;61578;52.002;5.468;2023-05-19T00:43:14;102660.28;;;10.40;71.77
73341;BME280;61578;52.002;5.468;2023-05-19T00:43:45;102654.19;;;10.38;71.55
73341;BME280;61578;52.002;5.468;2023-05-19T00:44:16;102655.84;;;10.41;71.61
73341;BME280;61578;52.002;5.468;2023-05-19T00:44:46;102662.00;;;10.41;71.67
73341;BME280;61578;52.002;5.468;2023-05-19T00:45:20;102657.56;;;10.42;71.70
73341;BME280;61578;52.002;5.468;2023-05-19T00:45:51;102655.88;;;10.39;71.71
73341;BME280;61578;52.002;5.468;2023-05-19T00:46:22;102652.59;;;10.32;71.82
73341;BME280;61578;52.002;5.468;2023-05-19T00:46:56;102663.84;;;10.39;72.18
73341;BME280;61578;52.002;5.468;2023-05-19T00:47:30;102659.50;;;10.38;72.21
73341;BME280;61578;52.002;5.468;2023-05-19T00:48:00;102670.94;;;10.39;71.99
73341;BME280;61578;52.002;5.468;2023-05-19T00:48:31;102656.94;;;10.35;71.99
73341;BME280;61578;52.002;5.468;2023-05-19T00:49:02;102664.81;;;10.38;71.76
73341;BME280;61578;52.002;5.468;2023-05-19T00:49:33;102664.03;;;10.35;71.87
73341;BME280;61578;52.002;5.468;2023-05-19T00:50:04;102650.94;;;10.28;71.67
73341;BME280;61578;52.002;5.468;2023-05-19T00:50:35;102660.41;;;10.37;72.14
73341;BME280;61578;52.002;5.468;2023-05-19T00:51:06;102653.41;;;10.35;71.77
73341;BME280;61578;52.002;5.468;2023-05-19T00:51:37;102660.59;;;10.31;71.63
73341;BME280;61578;52.002;5.468;2023-05-19T00:52:08;102649.38;;;10.23;72.27
73341;BME280;61578;52.002;5.468;2023-05-19T00:52:39;102669.47;;;10.30;72.13
73341;BME280;61578;52.002;5.468;2023-05-19T00:53:11;102655.38;;;10.28;72.17
73341;BME280;61578;52.002;5.468;2023-05-19T00:53:45;102653.53;;;10.30;72.02
73341;BME280;61578;52.002;5.468;2023-05-19T00:54:19;102658.84;;;10.30;71.93
73341;BME280;61578;52.002;5.468;2023-05-19T00:54:54;102667.63;;;10.32;72.09
73341;BME280;61578;52.002;5.468;2023-05-19T00:55:30;102662.38;;;10.30;72.04
73341;BME280;61578;52.002;5.468;2023-05-19T00:56:02;102648.50;;;10.22;72.25
73341;BME280;61578;52.002;5.468;2023-05-19T00:56:33;102660.69;;;10.28;71.86
73341;BME280;61578;52.002;5.468;2023-05-19T00:57:04;102666.88;;;10.28;72.31
73341;BME280;61578;52.002;5.468;2023-05-19T00:57:35;102660.81;;;10.25;72.38
73341;BME280;61578;52.002;5.468;2023-05-19T00:58:10;102648.63;;;10.18;71.92
73341;BME280;61578;52.002;5.468;2023-05-19T00:58:45;102665.25;;;10.24;72.03
73341;BME280;61578;52.002;5.468;2023-05-19T00:59:17;102660.00;;;10.23;72.23
73341;BME280;61578;52.002;5.468;2023-05-19T00:59:48;102637.19;;;10.16;72.17
73341;BME280;61578;52.002;5.468;2023-05-19T01:00:21;102657.34;;;10.23;71.93
73341;BME280;61578;52.002;5.468;2023-05-19T01:00:59;102653.00;;;10.20;72.13
73341;BME280;61578;52.002;5.468;2023-05-19T01:01:34;102653.84;;;10.21;72.17
73341;BME280;61578;52.002;5.468;2023-05-19T01:02:05;102660.84;;;10.23;72.86
73341;BME280;61578;52.002;5.468;2023-05-19T01:02:36;102647.63;;;10.22;72.41
73341;BME280;61578;52.002;5.468;2023-05-19T01:03:09;102653.81;;;10.22;72.32
73341;BME280;61578;52.002;5.468;2023-05-19T01:03:42;102645.22;;;10.14;72.07
73341;BME280;61578;52.002;5.468;2023-05-19T01:04:17;102652.13;;;10.20;71.97
73341;BME280;61578;52.002;5.468;2023-05-19T01:04:50;102640.03;;;10.10;72.40
73341;BME280;61578;52.002;5.468;2023-05-19T01:05:21;102646.03;;;10.16;72.73
73341;BME280;61578;52.002;5.468;2023-05-19T01:05:52;102670.56;;;10.24;72.31
73341;BME280;61578;52.002;5.468;2023-05-19T01:06:23;102653.00;;;10.20;72.21
73341;BME280;61578;52.002;5.468;2023-05-19T01:06:55;102651.16;;;10.22;72.70
73341;BME280;61578;52.002;5.468;2023-05-19T01:07:27;102653.81;;;10.22;72.45
73341;BME280;61578;52.002;5.468;2023-05-19T01:08:01;102643.38;;;10.16;72.47
73341;BME280;61578;52.002;5.468;2023-05-19T01:08:36;102659.06;;;10.24;72.78
73341;BME280;61578;52.002;5.468;2023-05-19T01:09:07;102659.94;;;10.24;72.29
73341;BME280;61578;52.002;5.468;2023-05-19T01:09:38;102656.47;;;10.22;72.13
73341;BME280;61578;52.002;5.468;2023-05-19T01:10:10;102646.19;;;10.12;72.14
73341;BME280;61578;52.002;5.468;2023-05-19T01:10:40;102656.59;;;10.18;72.24
73341;BME280;61578;52.002;5.468;2023-05-19T01:11:11;102665.44;;;10.18;72.65
73341;BME280;61578;52.002;5.468;2023-05-19T01:11:41;102654.97;;;10.14;72.66
73341;BME280;61578;52.002;5.468;2023-05-19T01:12:12;102663.69;;;10.17;72.64
73341;BME280;61578;52.002;5.468;2023-05-19T01:12:44;102657.53;;;10.17;72.92
73341;BME280;61578;52.002;5.468;2023-05-19T01:13:16;102654.97;;;10.14;72.74
73341;BME280;61578;52.002;5.468;2023-05-19T01:13:48;102656.75;;;10.13;72.75
73341;BME280;61578;52.002;5.468;2023-05-19T01:14:21;102662.09;;;10.12;72.84
73341;BME280;61578;52.002;5.468;2023-05-19T01:14:53;102657.69;;;10.11;72.95
73341;BME280;61578;52.002;5.468;2023-05-19T01:15:26;102645.56;;;10.04;73.37
73341;BME280;61578;52.002;5.468;2023-05-19T01:16:24;102661.28;;;10.10;73.35
73341;BME280;61578;52.002;5.468;2023-05-19T01:17:29;102658.56;;;10.11;73.63
73341;BME280;61578;52.002;5.468;2023-05-19T01:18:10;102661.28;;;10.10;73.27
73341;BME280;61578;52.002;5.468;2023-05-19T01:20:38;102664.09;;;10.05;72.98
73341;BME280;61578;52.002;5.468;2023-05-19T01:22:38;102658.84;;;10.04;73.50
73341;BME280;61578;52.002;5.468;2023-05-19T01:25:52;102662.34;;;10.04;73.57
73341;BME280;61578;52.002;5.468;2023-05-19T01:28:37;102657.19;;;10.00;73.00
73341;BME280;61578;52.002;5.468;2023-05-19T01:30:39;102658.19;;;9.97;73.35
73341;BME280;61578;52.002;5.468;2023-05-19T01:31:10;102654.66;;;9.96;73.39
73341;BME280;61578;52.002;5.468;2023-05-19T01:31:43;102653.78;;;9.96;73.78
73341;BME280;61578;52.002;5.468;2023-05-19T01:32:19;102655.63;;;9.94;73.52
73341;BME280;61578;52.002;5.468;2023-05-19T01:32:58;102654.78;;;9.92;73.73
73341;BME280;61578;52.002;5.468;2023-05-19T01:33:32;102658.31;;;9.92;73.95
73341;BME280;61578;52.002;5.468;2023-05-19T01:34:05;102653.00;;;9.92;73.72
73341;BME280;61578;52.002;5.468;2023-05-19T01:34:41;102650.41;;;9.91;73.96
73341;BME280;61578;52.002;5.468;2023-05-19T01:35:15;102646.88;;;9.90;73.85
73341;BME280;61578;52.002;5.468;2023-05-19T01:35:47;102645.97;;;9.91;74.28
73341;BME280;61578;52.002;5.468;2023-05-19T01:36:21;102640.66;;;9.91;73.72
73341;BME280;61578;52.002;5.468;2023-05-19T01:36:54;102656.66;;;9.88;73.77
73341;BME280;61578;52.002;5.468;2023-05-19T01:37:28;102652.19;;;9.90;73.92
73341;BME280;61578;52.002;5.468;2023-05-19T01:38:00;102648.66;;;9.90;74.30
73341;BME280;61578;52.002;5.468;2023-05-19T01:38:34;102647.78;;;9.89;73.92
73341;BME280;61578;52.002;5.468;2023-05-19T01:39:08;102639.16;;;9.83;74.30
73341;BME280;61578;52.002;5.468;2023-05-19T01:39:42;102648.69;;;9.88;73.90
73341;BME280;61578;52.002;5.468;2023-05-19T01:40:14;102646.13;;;9.87;74.09
73341;BME280;61578;52.002;5.468;2023-05-19T01:40:47;102632.25;;;9.77;73.97
73341;BME280;61578;52.002;5.468;2023-05-19T01:41:25;102649.75;;;9.84;73.86
73341;BME280;61578;52.002;5.468;2023-05-19T01:42:00;102646.16;;;9.85;74.20
73341;BME280;61578;52.002;5.468;2023-05-19T01:42:31;102649.03;;;9.78;74.06
73341;BME280;61578;52.002;5.468;2023-05-19T01:43:10;102648.88;;;9.84;74.04
73341;BME280;61578;52.002;5.468;2023-05-19T01:43:43;102644.47;;;9.83;74.13
73341;BME280;61578;52.002;5.468;2023-05-19T01:44:14;102636.66;;;9.78;74.34
73341;BME280;61578;52.002;5.468;2023-05-19T01:44:45;102650.59;;;9.85;74.40
73341;BME280;61578;52.002;5.468;2023-05-19T01:45:17;102646.97;;;9.87;74.29
73341;BME280;61578;52.002;5.468;2023-05-19T01:45:50;102643.53;;;9.85;74.28
73341;BME280;61578;52.002;5.468;2023-05-19T01:46:24;102650.56;;;9.86;74.40
73341;BME280;61578;52.002;5.468;2023-05-19T01:46:58;102641.03;;;9.79;74.42
73341;BME280;61578;52.002;5.468;2023-05-19T01:47:30;102650.66;;;9.83;74.28
73341;BME280;61578;52.002;5.468;2023-05-19T01:48:05;102642.69;;;9.83;74.23
73341;BME280;61578;52.002;5.468;2023-05-19T01:48:37;102657.81;;;9.80;74.12
73341;BME280;61578;52.002;5.468;2023-05-19T01:49:09;102642.75;;;9.82;74.39
73341;BME280;61578;52.002;5.468;2023-05-19T01:49:40;102627.06;;;9.74;74.46
73341;BME280;61578;52.002;5.468;2023-05-19T01:50:11;102642.75;;;9.82;74.32
73341;BME280;61578;52.002;5.468;2023-05-19T01:50:42;102634.75;;;9.83;74.71
73341;BME280;61578;52.002;5.468;2023-05-19T01:51:12;102642.53;;;9.88;74.94
73341;BME280;61578;52.002;5.468;2023-05-19T01:51:44;102639.94;;;9.86;74.35
73341;BME280;61578;52.002;5.468;2023-05-19T01:52:15;102637.34;;;9.85;74.62
73341;BME280;61578;52.002;5.468;2023-05-19T01:52:46;102642.59;;;9.86;74.73
73341;BME280;61578;52.002;5.468;2023-05-19T01:53:17;102640.91;;;9.84;74.64
73341;BME280;61578;52.002;5.468;2023-05-19T01:53:48;102642.59;;;9.86;74.71
73341;BME280;61578;52.002;5.468;2023-05-19T01:54:21;102631.16;;;9.84;74.62
73341;BME280;61578;52.002;5.468;2023-05-19T01:54:52;102639.09;;;9.86;74.37
73341;BME280;61578;52.002;5.468;2023-05-19T01:55:23;102641.72;;;9.86;74.68
73341;BME280;61578;52.002;5.468;2023-05-19T01:55:55;102634.69;;;9.85;74.38
73341;BME280;61578;52.002;5.468;2023-05-19T01:58:22;102634.75;;;9.83;74.24
73341;BME280;61578;52.002;5.468;2023-05-19T01:59:36;102639.25;;;9.80;74.86
73341;BME280;61578;52.002;5.468;2023-05-19T02:01:06;102640.28;;;9.76;74.43
73341;BME280;61578;52.002;5.468;2023-05-19T02:01:53;102633.22;;;9.76;75.21
73341;BME280;61578;52.002;5.468;2023-05-19T02:04:47;102637.69;;;9.74;74.89
73341;BME280;61578;52.002;5.468;2023-05-19T02:07:25;102629.81;;;9.71;74.91
73341;BME280;61578;52.002;5.468;2023-05-19T02:10:05;102630.97;;;9.63;75.32
73341;BME280;61578;52.002;5.468;2023-05-19T02:10:47;102638.72;;;9.69;75.17
73341;BME280;61578;52.002;5.468;2023-05-19T02:11:28;102634.41;;;9.66;75.15
73341;BME280;61578;52.002;5.468;2023-05-19T02:13:00;102643.28;;;9.65;75.36
73341;BME280;61578;52.002;5.468;2023-05-19T02:13:37;102634.47;;;9.65;75.34
73341;BME280;61578;52.002;5.468;2023-05-19T02:14:20;102636.31;;;9.61;75.28
73341;BME280;61578;52.002;5.468;2023-05-19T02:15:44;102632.81;;;9.60;75.05
73341;BME280;61578;52.002;5.468;2023-05-19T02:16:24;102638.97;;;9.61;75.12
73341;BME280;61578;52.002;5.468;2023-05-19T02:16:58;102634.69;;;9.57;75.36
73341;BME280;61578;52.002;5.468;2023-05-19T02:17:34;102635.47;;;9.60;75.71
73341;BME280;61578;52.002;5.468;2023-05-19T02:18:09;102638.16;;;9.59;75.25
73341;BME280;61578;52.002;5.468;2023-05-19T02:18:41;102637.25;;;9.60;75.70
73341;BME280;61578;52.002;5.468;2023-05-19T02:19:26;102634.59;;;9.60;75.50
73341;BME280;61578;52.002;5.468;2023-05-19T02:19:58;102636.31;;;9.61;75.84
73341;BME280;61578;52.002;5.468;2023-05-19T02:20:30;102632.09;;;9.55;75.63
73341;BME280;61578;52.002;5.468;2023-05-19T02:21:01;102634.69;;;9.57;75.61
73341;BME280;61578;52.002;5.468;2023-05-19T02:21:32;102633.88;;;9.55;75.49
73341;BME280;61578;52.002;5.468;2023-05-19T02:22:03;102632.19;;;9.52;75.34
73341;BME280;61578;52.002;5.468;2023-05-19T02:22:35;102643.66;;;9.53;75.64
73341;BME280;61578;52.002;5.468;2023-05-19T02:23:06;102644.56;;;9.52;75.64
73341;BME280;61578;52.002;5.468;2023-05-19T02:23:39;102636.63;;;9.52;75.85
73341;BME280;61578;52.002;5.468;2023-05-19T02:24:13;102630.44;;;9.51;75.55
73341;BME280;61578;52.002;5.468;2023-05-19T02:24:45;102634.84;;;9.52;75.96
73341;BME280;61578;52.002;5.468;2023-05-19T02:25:17;102637.50;;;9.52;76.03
73341;BME280;61578;52.002;5.468;2023-05-19T02:25:47;102636.53;;;9.55;75.73
73341;BME280;61578;52.002;5.468;2023-05-19T02:26:21;102637.44;;;9.54;76.05
73341;BME280;61578;52.002;5.468;2023-05-19T02:26:53;102636.50;;;9.56;75.97
73341;BME280;61578;52.002;5.468;2023-05-19T02:27:23;102629.38;;;9.57;75.90
73341;BME280;61578;52.002;5.468;2023-05-19T02:27:57;102629.44;;;9.55;76.03
73341;BME280;61578;52.002;5.468;2023-05-19T02:28:28;102631.22;;;9.55;76.05
73341;BME280;61578;52.002;5.468;2023-05-19T02:28:59;102625.06;;;9.54;76.00
73341;BME280;61578;52.002;5.468;2023-05-19T02:29:30;102633.88;;;9.55;75.44
73341;BME280;61578;52.002;5.468;2023-05-19T02:30:01;102631.22;;;9.55;76.18
73341;BME280;61578;52.002;5.468;2023-05-19T02:30:36;102633.00;;;9.54;76.08
73341;BME280;61578;52.002;5.468;2023-05-19T02:31:07;102625.13;;;9.51;75.84
73341;BME280;61578;52.002;5.468;2023-05-19T02:31:39;102629.53;;;9.52;75.75
73341;BME280;61578;52.002;5.468;2023-05-19T02:32:10;102626.00;;;9.52;75.74
73341;BME280;61578;52.002;5.468;2023-05-19T02:32:41;102628.72;;;9.50;75.90
73341;BME280;61578;52.002;5.468;2023-05-19T02:33:11;102630.44;;;9.51;76.38
73341;BME280;61578;52.002;5.468;2023-05-19T02:33:42;102629.53;;;9.52;75.80
73341;BME280;61578;52.002;5.468;2023-05-19T02:34:13;102622.63;;;9.47;76.05
73341;BME280;61578;52.002;5.468;2023-05-19T02:34:46;102619.06;;;9.48;76.18
73341;BME280;61578;52.002;5.468;2023-05-19T02:35:17;102623.56;;;9.46;76.39
73341;BME280;61578;52.002;5.468;2023-05-19T02:35:48;102626.22;;;9.46;76.48
73341;BME280;61578;52.002;5.468;2023-05-19T02:36:21;102619.16;;;9.45;76.15
73341;BME280;61578;52.002;5.468;2023-05-19T02:36:52;102622.56;;;9.48;76.05
73341;BME280;61578;52.002;5.468;2023-05-19T02:37:23;102620.91;;;9.46;76.00
73341;BME280;61578;52.002;5.468;2023-05-19T02:37:54;102618.34;;;9.43;76.36
73341;BME280;61578;52.002;5.468;2023-05-19T02:38:25;102618.34;;;9.43;76.48
73341;BME280;61578;52.002;5.468;2023-05-19T02:38:57;102624.47;;;9.45;76.38
73341;BME280;61578;52.002;5.468;2023-05-19T02:39:30;102621.00;;;9.43;76.43
73341;BME280;61578;52.002;5.468;2023-05-19T02:40:05;102614.94;;;9.38;76.25
73341;BME280;61578;52.002;5.468;2023-05-19T02:40:36;102617.47;;;9.42;76.24
73341;BME280;61578;52.002;5.468;2023-05-19T02:41:06;102618.34;;;9.43;76.29
73341;BME280;61578;52.002;5.468;2023-05-19T02:41:38;102621.88;;;9.43;76.21
73341;BME280;61578;52.002;5.468;2023-05-19T02:42:08;102612.13;;;9.44;76.45
73341;BME280;61578;52.002;5.468;2023-05-19T02:42:40;102613.94;;;9.42;76.58
73341;BME280;61578;52.002;5.468;2023-05-19T02:43:10;102616.59;;;9.42;76.23
73341;BME280;61578;52.002;5.468;2023-05-19T02:43:41;102619.31;;;9.40;76.40
73341;BME280;61578;52.002;5.468;2023-05-19T02:44:11;102619.34;;;9.39;76.62
73341;BME280;61578;52.002;5.468;2023-05-19T02:44:42;102614.94;;;9.38;76.56
73341;BME280;61578;52.002;5.468;2023-05-19T02:45:13;102617.47;;;9.42;76.37
73341;BME280;61578;52.002;5.468;2023-05-19T02:45:44;102614.00;;;9.40;76.48
73341;BME280;61578;52.002;5.468;2023-05-19T02:46:14;102618.44;;;9.40;76.50
73341;BME280;61578;52.002;5.468;2023-05-19T02:46:45;102609.66;;;9.38;76.54
73341;BME280;61578;52.002;5.468;2023-05-19T02:47:16;102615.75;;;9.41;76.66
73341;BME280;61578;52.002;5.468;2023-05-19T02:47:47;102611.34;;;9.40;76.43
73341;BME280;61578;52.002;5.468;2023-05-19T02:48:20;102613.28;;;9.35;76.83
73341;BME280;61578;52.002;5.468;2023-05-19T02:48:51;102618.50;;;9.37;76.76
73341;BME280;61578;52.002;5.468;2023-05-19T02:49:25;102597.56;;;9.29;76.69
73341;BME280;61578;52.002;5.468;2023-05-19T02:49:56;102620.25;;;9.38;76.70
73341;BME280;61578;52.002;5.468;2023-05-19T02:50:27;102607.91;;;9.37;76.58
73341;BME280;61578;52.002;5.468;2023-05-19T02:50:57;102606.13;;;9.37;76.57
73341;BME280;61578;52.002;5.468;2023-05-19T02:51:28;102612.41;;;9.35;76.99
73341;BME280;61578;52.002;5.468;2023-05-19T02:51:59;102608.97;;;9.31;76.78
73341;BME280;61578;52.002;5.468;2023-05-19T02:52:32;102603.63;;;9.33;76.97
73341;BME280;61578;52.002;5.468;2023-05-19T02:53:03;102611.53;;;9.34;77.13
73341;BME280;61578;52.002;5.468;2023-05-19T02:53:34;102611.44;;;9.37;77.14
73341;BME280;61578;52.002;5.468;2023-05-19T02:54:05;102605.38;;;9.34;77.08
73341;BME280;61578;52.002;5.468;2023-05-19T02:54:36;102610.72;;;9.32;76.61
73341;BME280;61578;52.002;5.468;2023-05-19T02:55:07;102611.59;;;9.33;76.82
73341;BME280;61578;52.002;5.468;2023-05-19T02:55:37;102608.06;;;9.32;76.95
73341;BME280;61578;52.002;5.468;2023-05-19T02:56:08;102607.19;;;9.32;77.22
73341;BME280;61578;52.002;5.468;2023-05-19T02:56:39;102612.41;;;9.35;77.28
73341;BME280;61578;52.002;5.468;2023-05-19T02:57:10;102607.13;;;9.35;76.94
73341;BME280;61578;52.002;5.468;2023-05-19T02:57:40;102607.00;;;9.38;76.66
73341;BME280;61578;52.002;5.468;2023-05-19T02:58:14;102605.25;;;9.37;76.86
73341;BME280;61578;52.002;5.468;2023-05-19T02:58:45;102606.22;;;9.36;76.88
73341;BME280;61578;52.002;5.468;2023-05-19T02:59:15;102603.59;;;9.34;76.65
73341;BME280;61578;52.002;5.468;2023-05-19T02:59:46;102607.00;;;9.38;77.13
73341;BME280;61578;52.002;5.468;2023-05-19T03:00:17;102606.09;;;9.39;77.01
73341;BME280;61578;52.002;5.468;2023-05-19T03:00:48;102611.44;;;9.37;76.61
73341;BME280;61578;52.002;5.468;2023-05-19T03:01:21;102615.88;;;9.37;76.69
73341;BME280;61578;52.002;5.468;2023-05-19T03:01:58;102598.34;;;9.33;76.68
73341;BME280;61578;52.002;5.468;2023-05-19T03:02:30;102590.47;;;9.30;77.15
73341;BME280;61578;52.002;5.468;2023-05-19T03:03:03;102587.00;;;9.28;76.49
73341;BME280;61578;52.002;5.468;2023-05-19T03:03:34;102606.09;;;9.39;76.98
73341;BME280;61578;52.002;5.468;2023-05-19T03:04:05;102606.13;;;9.37;77.04
73341;BME280;61578;52.002;5.468;2023-05-19T03:04:36;102607.00;;;9.38;76.88
73341;BME280;61578;52.002;5.468;2023-05-19T03:05:10;102606.13;;;9.37;76.99
73341;BME280;61578;52.002;5.468;2023-05-19T03:05:41;102600.91;;;9.36;76.73
73341;BME280;61578;52.002;5.468;2023-05-19T03:06:12;102604.34;;;9.38;76.76
73341;BME280;61578;52.002;5.468;2023-05-19T03:06:43;102604.50;;;9.33;77.06
73341;BME280;61578;52.002;5.468;2023-05-19T03:07:14;102603.69;;;9.31;76.90
73341;BME280;61578;52.002;5.468;2023-05-19T03:07:45;102594.28;;;9.21;77.33
73341;BME280;61578;52.002;5.468;2023-05-19T03:08:16;102608.16;;;9.29;77.49
73341;BME280;61578;52.002;5.468;2023-05-19T03:08:47;102608.97;;;9.31;77.43
73341;BME280;61578;52.002;5.468;2023-05-19T03:09:21;102614.25;;;9.33;77.19
73341;BME280;61578;52.002;5.468;2023-05-19T03:09:52;102610.72;;;9.32;77.54
73341;BME280;61578;52.002;5.468;2023-05-19T03:10:23;102607.19;;;9.32;77.33
73341;BME280;61578;52.002;5.468;2023-05-19T03:10:54;102592.44;;;9.23;77.35
73341;BME280;61578;52.002;5.468;2023-05-19T03:11:25;102601.84;;;9.33;77.10
73341;BME280;61578;52.002;5.468;2023-05-19T03:11:56;102601.91;;;9.32;77.35
73341;BME280;61578;52.002;5.468;2023-05-19T03:12:33;102600.94;;;9.34;77.53